Andrews, North Carolina
Current Conditions -  °F | °C
As of 7:35 AM on Saturday 01 Nov 2014 (Local Time) from KRHP Reporting Station
Overcast Overcast  
Wind Chill: 35°   Ceiling: 2300
Heat Index: 35°   Visibility: 7mi
Dew Point: 29°   Wind: 3mph
Humidity: 79%   Direction: 190°S
Pressure: 29.92"   Gusts: NA
Location:  35.2°N, 83.82°W
Report Text: KRHP 011135Z AUTO 19003KT 7SM OVC023 02/M02 A2992 RMK AO2 T00151017
Loading
Personal Weather Stations






























Interactive Weather Map
Tropical Storm Tracking
New forecast layout! Learn more

10-Day Weather Forecast

Advertisements
Track Severe Weather on mobile